sensor_id;sensor_type;location;lat;lon;timestamp;P1;durP1;ratioP1;P2;durP2;ratioP2
22947;SDS011;11640;52.520;13.456;2022-07-29T00:02:13;5.68;;;3.35;;
22947;SDS011;11640;52.520;13.456;2022-07-29T00:07:15;7.35;;;3.42;;
22947;SDS011;11640;52.520;13.456;2022-07-29T00:12:17;7.88;;;3.70;;
22947;SDS011;11640;52.520;13.456;2022-07-29T00:17:26;6.30;;;3.47;;
22947;SDS011;11640;52.520;13.456;2022-07-29T00:22:28;7.65;;;3.92;;
22947;SDS011;11640;52.520;13.456;2022-07-29T00:27:29;9.55;;;3.80;;
22947;SDS011;11640;52.520;13.456;2022-07-29T00:32:31;6.10;;;3.20;;
22947;SDS011;11640;52.520;13.456;2022-07-29T00:37:34;7.75;;;3.75;;
22947;SDS011;11640;52.520;13.456;2022-07-29T00:42:48;7.07;;;3.45;;
22947;SDS011;11640;52.520;13.456;2022-07-29T00:47:51;7.50;;;3.65;;
22947;SDS011;11640;52.520;13.456;2022-07-29T00:52:53;11.43;;;4.35;;
22947;SDS011;11640;52.520;13.456;2022-07-29T00:57:55;9.32;;;3.90;;
22947;SDS011;11640;52.520;13.456;2022-07-29T01:02:59;6.97;;;3.75;;
22947;SDS011;11640;52.520;13.456;2022-07-29T01:08:02;9.00;;;3.72;;
22947;SDS011;11640;52.520;13.456;2022-07-29T01:13:04;8.10;;;3.42;;
22947;SDS011;11640;52.520;13.456;2022-07-29T01:18:16;7.10;;;3.92;;
22947;SDS011;11640;52.520;13.456;2022-07-29T01:23:46;8.15;;;3.80;;
22947;SDS011;11640;52.520;13.456;2022-07-29T01:34:23;7.57;;;3.67;;
22947;SDS011;11640;52.520;13.456;2022-07-29T01:39:33;6.70;;;3.38;;
22947;SDS011;11640;52.520;13.456;2022-07-29T01:44:39;7.55;;;3.90;;
22947;SDS011;11640;52.520;13.456;2022-07-29T01:49:51;7.25;;;3.38;;
22947;SDS011;11640;52.520;13.456;2022-07-29T01:54:56;6.57;;;3.47;;
22947;SDS011;11640;52.520;13.456;2022-07-29T02:00:00;6.75;;;3.42;;
22947;SDS011;11640;52.520;13.456;2022-07-29T02:05:24;6.13;;;3.60;;
22947;SDS011;11640;52.520;13.456;2022-07-29T02:10:31;6.22;;;3.28;;
22947;SDS011;11640;52.520;13.456;2022-07-29T02:15:34;10.13;;;4.05;;
22947;SDS011;11640;52.520;13.456;2022-07-29T02:20:37;6.60;;;3.22;;
22947;SDS011;11640;52.520;13.456;2022-07-29T02:25:41;5.50;;;3.33;;
22947;SDS011;11640;52.520;13.456;2022-07-29T02:30:45;5.78;;;3.53;;
22947;SDS011;11640;52.520;13.456;2022-07-29T02:35:49;6.50;;;3.33;;
22947;SDS011;11640;52.520;13.456;2022-07-29T02:40:52;7.35;;;3.45;;
22947;SDS011;11640;52.520;13.456;2022-07-29T02:45:56;7.00;;;3.35;;
22947;SDS011;11640;52.520;13.456;2022-07-29T02:51:05;7.57;;;3.53;;
22947;SDS011;11640;52.520;13.456;2022-07-29T02:56:33;9.02;;;3.92;;
22947;SDS011;11640;52.520;13.456;2022-07-29T03:01:39;8.25;;;4.45;;
22947;SDS011;11640;52.520;13.456;2022-07-29T03:06:44;8.05;;;3.63;;
22947;SDS011;11640;52.520;13.456;2022-07-29T03:11:49;6.22;;;4.00;;
22947;SDS011;11640;52.520;13.456;2022-07-29T03:16:51;6.78;;;3.40;;
22947;SDS011;11640;52.520;13.456;2022-07-29T03:21:55;9.25;;;3.67;;
22947;SDS011;11640;52.520;13.456;2022-07-29T03:27:01;5.60;;;3.05;;
22947;SDS011;11640;52.520;13.456;2022-07-29T03:32:04;5.93;;;3.25;;
22947;SDS011;11640;52.520;13.456;2022-07-29T03:37:09;6.97;;;3.80;;
22947;SDS011;11640;52.520;13.456;2022-07-29T03:42:11;7.93;;;3.53;;
22947;SDS011;11640;52.520;13.456;2022-07-29T03:47:16;8.68;;;3.67;;
22947;SDS011;11640;52.520;13.456;2022-07-29T03:52:23;9.20;;;4.30;;
22947;SDS011;11640;52.520;13.456;2022-07-29T03:57:25;6.55;;;3.40;;
22947;SDS011;11640;52.520;13.456;2022-07-29T04:02:29;6.63;;;3.33;;
22947;SDS011;11640;52.520;13.456;2022-07-29T04:07:32;6.35;;;3.25;;
22947;SDS011;11640;52.520;13.456;2022-07-29T04:12:34;7.43;;;3.35;;
22947;SDS011;11640;52.520;13.456;2022-07-29T04:17:36;6.65;;;3.25;;
22947;SDS011;11640;52.520;13.456;2022-07-29T04:22:39;7.30;;;3.55;;
22947;SDS011;11640;52.520;13.456;2022-07-29T04:27:41;7.63;;;3.10;;
22947;SDS011;11640;52.520;13.456;2022-07-29T04:33:02;9.45;;;3.53;;
22947;SDS011;11640;52.520;13.456;2022-07-29T04:38:05;6.18;;;3.40;;
22947;SDS011;11640;52.520;13.456;2022-07-29T04:43:16;9.90;;;3.70;;
22947;SDS011;11640;52.520;13.456;2022-07-29T04:48:23;6.25;;;3.00;;
22947;SDS011;11640;52.520;13.456;2022-07-29T04:53:29;6.25;;;3.20;;
22947;SDS011;11640;52.520;13.456;2022-07-29T04:58:31;7.57;;;3.45;;
22947;SDS011;11640;52.520;13.456;2022-07-29T05:03:35;7.85;;;3.33;;
22947;SDS011;11640;52.520;13.456;2022-07-29T05:08:37;7.25;;;3.13;;
22947;SDS011;11640;52.520;13.456;2022-07-29T05:13:42;8.10;;;3.30;;
22947;SDS011;11640;52.520;13.456;2022-07-29T05:18:46;8.40;;;3.55;;
22947;SDS011;11640;52.520;13.456;2022-07-29T05:23:48;7.05;;;3.10;;
22947;SDS011;11640;52.520;13.456;2022-07-29T05:28:50;8.90;;;3.15;;
22947;SDS011;11640;52.520;13.456;2022-07-29T05:33:52;8.10;;;3.20;;
22947;SDS011;11640;52.520;13.456;2022-07-29T05:38:54;8.52;;;3.28;;
22947;SDS011;11640;52.520;13.456;2022-07-29T05:43:55;5.93;;;3.00;;
22947;SDS011;11640;52.520;13.456;2022-07-29T05:48:57;7.45;;;3.40;;
22947;SDS011;11640;52.520;13.456;2022-07-29T05:53:59;6.70;;;3.20;;
22947;SDS011;11640;52.520;13.456;2022-07-29T05:59:02;8.20;;;3.35;;
22947;SDS011;11640;52.520;13.456;2022-07-29T06:04:18;7.82;;;3.25;;
22947;SDS011;11640;52.520;13.456;2022-07-29T06:09:20;7.10;;;3.20;;
22947;SDS011;11640;52.520;13.456;2022-07-29T06:14:24;8.45;;;3.10;;
22947;SDS011;11640;52.520;13.456;2022-07-29T06:19:27;7.32;;;3.10;;
22947;SDS011;11640;52.520;13.456;2022-07-29T06:24:29;7.68;;;3.08;;
22947;SDS011;11640;52.520;13.456;2022-07-29T06:29:31;8.00;;;3.15;;
22947;SDS011;11640;52.520;13.456;2022-07-29T06:34:33;9.13;;;3.65;;
22947;SDS011;11640;52.520;13.456;2022-07-29T06:39:36;6.97;;;3.13;;
22947;SDS011;11640;52.520;13.456;2022-07-29T06:44:39;8.90;;;3.22;;
22947;SDS011;11640;52.520;13.456;2022-07-29T06:49:41;7.80;;;3.30;;
22947;SDS011;11640;52.520;13.456;2022-07-29T06:54:43;7.78;;;2.92;;
22947;SDS011;11640;52.520;13.456;2022-07-29T06:59:49;6.50;;;2.78;;
22947;SDS011;11640;52.520;13.456;2022-07-29T07:04:50;7.82;;;2.95;;
22947;SDS011;11640;52.520;13.456;2022-07-29T07:09:52;9.07;;;3.47;;
22947;SDS011;11640;52.520;13.456;2022-07-29T07:14:54;8.13;;;3.00;;
22947;SDS011;11640;52.520;13.456;2022-07-29T07:19:56;6.70;;;3.05;;
22947;SDS011;11640;52.520;13.456;2022-07-29T07:24:58;7.60;;;3.30;;
22947;SDS011;11640;52.520;13.456;2022-07-29T07:30:01;9.65;;;3.17;;
22947;SDS011;11640;52.520;13.456;2022-07-29T07:35:04;8.07;;;2.83;;
22947;SDS011;11640;52.520;13.456;2022-07-29T07:40:08;8.70;;;3.10;;
22947;SDS011;11640;52.520;13.456;2022-07-29T07:45:19;6.78;;;2.85;;
22947;SDS011;11640;52.520;13.456;2022-07-29T07:50:21;7.50;;;3.10;;
22947;SDS011;11640;52.520;13.456;2022-07-29T07:55:23;6.82;;;2.80;;
22947;SDS011;11640;52.520;13.456;2022-07-29T08:00:25;7.05;;;2.83;;
22947;SDS011;11640;52.520;13.456;2022-07-29T08:05:27;6.35;;;2.58;;
22947;SDS011;11640;52.520;13.456;2022-07-29T08:10:29;5.63;;;2.83;;
22947;SDS011;11640;52.520;13.456;2022-07-29T08:15:50;7.60;;;2.70;;
22947;SDS011;11640;52.520;13.456;2022-07-29T08:21:13;10.13;;;2.95;;
22947;SDS011;11640;52.520;13.456;2022-07-29T08:26:16;6.30;;;2.65;;
22947;SDS011;11640;52.520;13.456;2022-07-29T08:31:18;5.22;;;2.70;;
22947;SDS011;11640;52.520;13.456;2022-07-29T08:36:20;6.07;;;2.58;;
22947;SDS011;11640;52.520;13.456;2022-07-29T08:41:22;6.80;;;2.35;;
22947;SDS011;11640;52.520;13.456;2022-07-29T08:46:27;5.68;;;2.10;;
22947;SDS011;11640;52.520;13.456;2022-07-29T08:51:29;4.22;;;2.20;;
22947;SDS011;11640;52.520;13.456;2022-07-29T08:56:36;7.95;;;2.88;;
22947;SDS011;11640;52.520;13.456;2022-07-29T09:01:40;7.03;;;2.83;;
22947;SDS011;11640;52.520;13.456;2022-07-29T09:06:46;7.30;;;3.47;;
22947;SDS011;11640;52.520;13.456;2022-07-29T09:11:50;8.13;;;2.85;;
22947;SDS011;11640;52.520;13.456;2022-07-29T09:16:55;6.50;;;3.50;;
22947;SDS011;11640;52.520;13.456;2022-07-29T09:21:58;6.60;;;2.78;;
22947;SDS011;11640;52.520;13.456;2022-07-29T09:27:07;5.65;;;2.90;;
22947;SDS011;11640;52.520;13.456;2022-07-29T09:32:11;5.95;;;2.38;;
22947;SDS011;11640;52.520;13.456;2022-07-29T09:37:25;5.45;;;2.60;;
22947;SDS011;11640;52.520;13.456;2022-07-29T09:42:29;6.07;;;2.38;;
22947;SDS011;11640;52.520;13.456;2022-07-29T09:47:40;6.45;;;2.72;;
22947;SDS011;11640;52.520;13.456;2022-07-29T09:52:49;6.97;;;2.88;;
22947;SDS011;11640;52.520;13.456;2022-07-29T09:57:52;4.50;;;2.30;;
22947;SDS011;11640;52.520;13.456;2022-07-29T10:02:54;7.72;;;2.30;;
22947;SDS011;11640;52.520;13.456;2022-07-29T10:08:02;4.88;;;2.10;;
22947;SDS011;11640;52.520;13.456;2022-07-29T10:13:06;4.40;;;2.20;;
22947;SDS011;11640;52.520;13.456;2022-07-29T10:18:16;4.47;;;1.80;;
22947;SDS011;11640;52.520;13.456;2022-07-29T10:23:20;4.38;;;2.10;;
22947;SDS011;11640;52.520;13.456;2022-07-29T10:28:22;4.30;;;1.67;;
22947;SDS011;11640;52.520;13.456;2022-07-29T10:43:41;5.20;;;2.00;;
22947;SDS011;11640;52.520;13.456;2022-07-29T10:49:06;5.13;;;2.20;;
22947;SDS011;11640;52.520;13.456;2022-07-29T10:54:16;5.40;;;2.30;;
22947;SDS011;11640;52.520;13.456;2022-07-29T10:59:44;5.40;;;2.22;;
22947;SDS011;11640;52.520;13.456;2022-07-29T11:05:17;3.75;;;2.00;;
22947;SDS011;11640;52.520;13.456;2022-07-29T11:10:22;4.47;;;2.42;;
22947;SDS011;11640;52.520;13.456;2022-07-29T11:15:52;6.05;;;2.00;;
22947;SDS011;11640;52.520;13.456;2022-07-29T11:20:58;4.90;;;2.20;;
22947;SDS011;11640;52.520;13.456;2022-07-29T11:26:19;4.40;;;2.42;;
22947;SDS011;11640;52.520;13.456;2022-07-29T11:31:41;4.88;;;2.30;;
22947;SDS011;11640;52.520;13.456;2022-07-29T11:47:54;5.82;;;2.40;;
22947;SDS011;11640;52.520;13.456;2022-07-29T11:53:19;6.82;;;2.45;;
22947;SDS011;11640;52.520;13.456;2022-07-29T11:58:22;4.68;;;2.50;;
22947;SDS011;11640;52.520;13.456;2022-07-29T12:03:25;7.22;;;2.80;;
22947;SDS011;11640;52.520;13.456;2022-07-29T12:08:39;6.55;;;2.58;;
22947;SDS011;11640;52.520;13.456;2022-07-29T12:13:44;6.72;;;3.05;;
22947;SDS011;11640;52.520;13.456;2022-07-29T12:18:56;5.43;;;3.00;;
22947;SDS011;11640;52.520;13.456;2022-07-29T12:23:59;6.65;;;2.80;;
22947;SDS011;11640;52.520;13.456;2022-07-29T12:29:14;6.30;;;3.20;;
22947;SDS011;11640;52.520;13.456;2022-07-29T12:34:22;5.35;;;3.00;;
22947;SDS011;11640;52.520;13.456;2022-07-29T12:39:27;5.65;;;3.28;;
22947;SDS011;11640;52.520;13.456;2022-07-29T12:44:43;7.32;;;3.67;;
22947;SDS011;11640;52.520;13.456;2022-07-29T12:49:53;5.30;;;2.78;;
22947;SDS011;11640;52.520;13.456;2022-07-29T12:55:13;7.43;;;3.25;;
22947;SDS011;11640;52.520;13.456;2022-07-29T13:00:15;6.38;;;2.95;;
22947;SDS011;11640;52.520;13.456;2022-07-29T13:05:17;5.50;;;3.33;;
22947;SDS011;11640;52.520;13.456;2022-07-29T13:10:20;8.77;;;3.45;;
22947;SDS011;11640;52.520;13.456;2022-07-29T13:15:24;4.03;;;2.70;;
22947;SDS011;11640;52.520;13.456;2022-07-29T13:20:28;4.88;;;3.00;;
22947;SDS011;11640;52.520;13.456;2022-07-29T13:25:31;4.68;;;2.95;;
22947;SDS011;11640;52.520;13.456;2022-07-29T13:30:34;4.70;;;2.88;;
22947;SDS011;11640;52.520;13.456;2022-07-29T13:35:44;8.38;;;3.45;;
22947;SDS011;11640;52.520;13.456;2022-07-29T13:40:46;6.15;;;3.30;;
22947;SDS011;11640;52.520;13.456;2022-07-29T13:45:48;5.40;;;3.10;;
22947;SDS011;11640;52.520;13.456;2022-07-29T13:50:50;5.68;;;3.03;;
22947;SDS011;11640;52.520;13.456;2022-07-29T13:55:51;5.78;;;3.20;;
22947;SDS011;11640;52.520;13.456;2022-07-29T14:00:55;5.85;;;3.50;;
22947;SDS011;11640;52.520;13.456;2022-07-29T14:05:58;7.00;;;3.85;;
22947;SDS011;11640;52.520;13.456;2022-07-29T14:11:01;5.32;;;3.20;;
22947;SDS011;11640;52.520;13.456;2022-07-29T14:16:03;5.97;;;3.30;;
22947;SDS011;11640;52.520;13.456;2022-07-29T14:21:05;7.15;;;3.38;;
22947;SDS011;11640;52.520;13.456;2022-07-29T14:26:07;5.82;;;3.30;;
22947;SDS011;11640;52.520;13.456;2022-07-29T14:31:16;4.95;;;3.25;;
22947;SDS011;11640;52.520;13.456;2022-07-29T14:36:18;6.22;;;3.28;;
22947;SDS011;11640;52.520;13.456;2022-07-29T14:41:21;6.68;;;3.90;;
22947;SDS011;11640;52.520;13.456;2022-07-29T14:46:23;8.80;;;3.60;;
22947;SDS011;11640;52.520;13.456;2022-07-29T14:51:25;5.75;;;3.20;;
22947;SDS011;11640;52.520;13.456;2022-07-29T14:56:32;4.47;;;3.13;;
22947;SDS011;11640;52.520;13.456;2022-07-29T15:01:37;5.20;;;2.95;;
22947;SDS011;11640;52.520;13.456;2022-07-29T15:06:39;5.45;;;2.97;;
22947;SDS011;11640;52.520;13.456;2022-07-29T15:11:41;5.45;;;3.88;;
22947;SDS011;11640;52.520;13.456;2022-07-29T15:16:43;8.02;;;3.40;;
22947;SDS011;11640;52.520;13.456;2022-07-29T15:21:48;5.50;;;3.47;;
22947;SDS011;11640;52.520;13.456;2022-07-29T15:26:50;5.78;;;3.30;;
22947;SDS011;11640;52.520;13.456;2022-07-29T15:31:53;6.60;;;3.65;;
22947;SDS011;11640;52.520;13.456;2022-07-29T15:36:55;4.45;;;2.72;;
22947;SDS011;11640;52.520;13.456;2022-07-29T15:41:57;7.22;;;3.10;;
22947;SDS011;11640;52.520;13.456;2022-07-29T15:47:01;6.57;;;2.70;;
22947;SDS011;11640;52.520;13.456;2022-07-29T15:52:04;7.20;;;3.08;;
22947;SDS011;11640;52.520;13.456;2022-07-29T15:57:07;8.80;;;2.72;;
22947;SDS011;11640;52.520;13.456;2022-07-29T16:02:09;6.00;;;3.17;;
22947;SDS011;11640;52.520;13.456;2022-07-29T16:07:11;4.70;;;2.95;;
22947;SDS011;11640;52.520;13.456;2022-07-29T16:12:15;9.88;;;3.03;;
22947;SDS011;11640;52.520;13.456;2022-07-29T16:17:17;4.88;;;2.97;;
22947;SDS011;11640;52.520;13.456;2022-07-29T16:22:19;6.72;;;3.05;;
22947;SDS011;11640;52.520;13.456;2022-07-29T16:27:20;5.30;;;2.55;;
22947;SDS011;11640;52.520;13.456;2022-07-29T16:32:37;5.25;;;2.80;;
22947;SDS011;11640;52.520;13.456;2022-07-29T16:37:40;4.55;;;2.63;;
22947;SDS011;11640;52.520;13.456;2022-07-29T16:42:42;5.78;;;3.25;;
22947;SDS011;11640;52.520;13.456;2022-07-29T16:47:47;4.22;;;2.63;;
22947;SDS011;11640;52.520;13.456;2022-07-29T16:52:50;8.27;;;2.80;;
22947;SDS011;11640;52.520;13.456;2022-07-29T16:57:52;4.65;;;2.80;;
22947;SDS011;11640;52.520;13.456;2022-07-29T17:02:54;4.45;;;2.40;;
22947;SDS011;11640;52.520;13.456;2022-07-29T17:07:56;4.18;;;2.25;;
22947;SDS011;11640;52.520;13.456;2022-07-29T17:12:59;10.18;;;5.30;;
22947;SDS011;11640;52.520;13.456;2022-07-29T17:18:01;6.30;;;2.40;;
22947;SDS011;11640;52.520;13.456;2022-07-29T17:23:12;5.47;;;2.78;;
22947;SDS011;11640;52.520;13.456;2022-07-29T17:28:14;5.00;;;2.50;;
22947;SDS011;11640;52.520;13.456;2022-07-29T17:33:16;4.97;;;2.47;;
22947;SDS011;11640;52.520;13.456;2022-07-29T17:38:18;8.23;;;2.80;;
22947;SDS011;11640;52.520;13.456;2022-07-29T17:43:20;5.57;;;2.30;;
22947;SDS011;11640;52.520;13.456;2022-07-29T17:48:21;5.28;;;2.63;;
22947;SDS011;11640;52.520;13.456;2022-07-29T17:53:24;6.03;;;2.60;;
22947;SDS011;11640;52.520;13.456;2022-07-29T17:58:26;6.88;;;2.75;;
22947;SDS011;11640;52.520;13.456;2022-07-29T18:03:28;7.82;;;2.63;;
22947;SDS011;11640;52.520;13.456;2022-07-29T18:08:30;6.70;;;2.60;;
22947;SDS011;11640;52.520;13.456;2022-07-29T18:13:33;5.20;;;2.63;;
22947;SDS011;11640;52.520;13.456;2022-07-29T18:18:34;6.13;;;2.60;;
22947;SDS011;11640;52.520;13.456;2022-07-29T18:23:36;7.20;;;2.28;;
22947;SDS011;11640;52.520;13.456;2022-07-29T18:28:38;5.90;;;2.40;;
22947;SDS011;11640;52.520;13.456;2022-07-29T18:33:40;5.82;;;2.53;;
22947;SDS011;11640;52.520;13.456;2022-07-29T18:38:42;4.38;;;2.22;;
22947;SDS011;11640;52.520;13.456;2022-07-29T18:43:44;3.95;;;2.42;;
22947;SDS011;11640;52.520;13.456;2022-07-29T18:48:47;4.90;;;2.08;;
22947;SDS011;11640;52.520;13.456;2022-07-29T18:53:49;6.00;;;2.60;;
22947;SDS011;11640;52.520;13.456;2022-07-29T18:58:51;5.20;;;2.35;;
22947;SDS011;11640;52.520;13.456;2022-07-29T19:03:52;7.43;;;2.67;;
22947;SDS011;11640;52.520;13.456;2022-07-29T19:08:54;6.63;;;3.20;;
22947;SDS011;11640;52.520;13.456;2022-07-29T19:13:56;4.20;;;2.70;;
22947;SDS011;11640;52.520;13.456;2022-07-29T19:18:58;6.63;;;2.47;;
22947;SDS011;11640;52.520;13.456;2022-07-29T19:24:01;5.65;;;2.50;;
22947;SDS011;11640;52.520;13.456;2022-07-29T19:29:09;6.00;;;2.42;;
22947;SDS011;11640;52.520;13.456;2022-07-29T19:34:11;4.85;;;2.90;;
22947;SDS011;11640;52.520;13.456;2022-07-29T19:39:13;5.25;;;2.55;;
22947;SDS011;11640;52.520;13.456;2022-07-29T19:44:15;4.68;;;2.40;;
22947;SDS011;11640;52.520;13.456;2022-07-29T19:49:17;7.88;;;2.58;;
22947;SDS011;11640;52.520;13.456;2022-07-29T19:54:19;8.75;;;3.55;;
22947;SDS011;11640;52.520;13.456;2022-07-29T19:59:21;6.25;;;2.58;;
22947;SDS011;11640;52.520;13.456;2022-07-29T20:04:24;7.82;;;2.60;;
22947;SDS011;11640;52.520;13.456;2022-07-29T20:09:27;5.35;;;2.65;;
22947;SDS011;11640;52.520;13.456;2022-07-29T20:14:29;7.18;;;2.80;;
22947;SDS011;11640;52.520;13.456;2022-07-29T20:19:31;6.80;;;3.00;;
22947;SDS011;11640;52.520;13.456;2022-07-29T20:24:34;7.00;;;2.80;;
22947;SDS011;11640;52.520;13.456;2022-07-29T20:29:36;6.28;;;2.47;;
22947;SDS011;11640;52.520;13.456;2022-07-29T20:34:38;6.53;;;3.15;;
22947;SDS011;11640;52.520;13.456;2022-07-29T20:39:43;6.68;;;2.80;;
22947;SDS011;11640;52.520;13.456;2022-07-29T20:44:48;6.93;;;2.80;;
22947;SDS011;11640;52.520;13.456;2022-07-29T20:49:51;5.05;;;2.70;;
22947;SDS011;11640;52.520;13.456;2022-07-29T20:54:53;5.85;;;2.50;;
22947;SDS011;11640;52.520;13.456;2022-07-29T20:59:55;6.97;;;2.78;;
22947;SDS011;11640;52.520;13.456;2022-07-29T21:04:56;6.18;;;2.50;;
22947;SDS011;11640;52.520;13.456;2022-07-29T21:09:59;5.03;;;2.58;;
22947;SDS011;11640;52.520;13.456;2022-07-29T21:15:00;7.75;;;3.90;;
22947;SDS011;11640;52.520;13.456;2022-07-29T21:20:06;5.70;;;2.72;;
22947;SDS011;11640;52.520;13.456;2022-07-29T21:25:09;8.60;;;3.00;;
22947;SDS011;11640;52.520;13.456;2022-07-29T21:30:11;5.35;;;2.42;;
22947;SDS011;11640;52.520;13.456;2022-07-29T21:35:13;10.38;;;2.92;;
22947;SDS011;11640;52.520;13.456;2022-07-29T21:40:35;6.82;;;3.15;;
22947;SDS011;11640;52.520;13.456;2022-07-29T21:45:37;4.85;;;2.65;;
22947;SDS011;11640;52.520;13.456;2022-07-29T21:50:39;6.90;;;2.50;;
22947;SDS011;11640;52.520;13.456;2022-07-29T21:55:41;5.43;;;2.58;;
22947;SDS011;11640;52.520;13.456;2022-07-29T22:00:43;4.93;;;2.70;;
22947;SDS011;11640;52.520;13.456;2022-07-29T22:05:45;6.40;;;2.38;;
22947;SDS011;11640;52.520;13.456;2022-07-29T22:10:47;6.95;;;2.65;;
22947;SDS011;11640;52.520;13.456;2022-07-29T22:15:48;9.18;;;2.58;;
22947;SDS011;11640;52.520;13.456;2022-07-29T22:20:50;4.45;;;2.50;;
22947;SDS011;11640;52.520;13.456;2022-07-29T22:25:52;5.18;;;2.47;;
22947;SDS011;11640;52.520;13.456;2022-07-29T22:30:54;5.18;;;2.47;;
22947;SDS011;11640;52.520;13.456;2022-07-29T22:35:56;5.60;;;2.42;;
22947;SDS011;11640;52.520;13.456;2022-07-29T22:40:58;7.75;;;2.47;;
22947;SDS011;11640;52.520;13.456;2022-07-29T22:46:03;4.93;;;2.47;;
22947;SDS011;11640;52.520;13.456;2022-07-29T22:51:05;8.45;;;2.70;;
22947;SDS011;11640;52.520;13.456;2022-07-29T22:56:07;6.00;;;2.30;;
22947;SDS011;11640;52.520;13.456;2022-07-29T23:01:09;5.75;;;2.55;;
22947;SDS011;11640;52.520;13.456;2022-07-29T23:06:11;5.30;;;2.30;;
22947;SDS011;11640;52.520;13.456;2022-07-29T23:11:13;6.88;;;2.15;;
22947;SDS011;11640;52.520;13.456;2022-07-29T23:16:14;5.88;;;2.00;;
22947;SDS011;11640;52.520;13.456;2022-07-29T23:21:27;6.80;;;2.70;;
22947;SDS011;11640;52.520;13.456;2022-07-29T23:26:28;6.93;;;2.30;;
22947;SDS011;11640;52.520;13.456;2022-07-29T23:31:31;8.75;;;2.40;;
22947;SDS011;11640;52.520;13.456;2022-07-29T23:36:42;6.80;;;2.42;;
22947;SDS011;11640;52.520;13.456;2022-07-29T23:41:43;6.22;;;2.40;;
22947;SDS011;11640;52.520;13.456;2022-07-29T23:46:45;8.93;;;2.40;;
22947;SDS011;11640;52.520;13.456;2022-07-29T23:51:47;7.93;;;2.40;;
22947;SDS011;11640;52.520;13.456;2022-07-29T23:56:49;6.85;;;2.70;;
